sensor_id;sensor_type;location;lat;lon;timestamp;temperature;humidity
16243;DHT22;11719;51.052;6.982;2023-03-23T00:01:24;15.80;99.90
16243;DHT22;11719;51.052;6.982;2023-03-23T00:03:53;15.90;99.90
16243;DHT22;11719;51.052;6.982;2023-03-23T00:06:26;15.90;99.90
16243;DHT22;11719;51.052;6.982;2023-03-23T00:08:58;15.90;99.90
16243;DHT22;11719;51.052;6.982;2023-03-23T00:11:30;15.80;99.90
16243;DHT22;11719;51.052;6.982;2023-03-23T00:13:58;15.90;99.90
16243;DHT22;11719;51.052;6.982;2023-03-23T00:16:29;15.90;99.90
16243;DHT22;11719;51.052;6.982;2023-03-23T00:19:02;15.90;99.90
16243;DHT22;11719;51.052;6.982;2023-03-23T00:21:39;15.90;99.90
16243;DHT22;11719;51.052;6.982;2023-03-23T00:24:17;15.80;99.90
16243;DHT22;11719;51.052;6.982;2023-03-23T00:26:45;15.80;99.90
16243;DHT22;11719;51.052;6.982;2023-03-23T00:29:16;15.80;99.90
16243;DHT22;11719;51.052;6.982;2023-03-23T00:31:47;15.80;99.90
16243;DHT22;11719;51.052;6.982;2023-03-23T00:34:15;15.70;99.90
16243;DHT22;11719;51.052;6.982;2023-03-23T00:36:53;15.80;99.90
16243;DHT22;11719;51.052;6.982;2023-03-23T00:39:22;15.70;99.90
16243;DHT22;11719;51.052;6.982;2023-03-23T00:41:53;15.80;99.90
16243;DHT22;11719;51.052;6.982;2023-03-23T00:44:27;15.80;99.90
16243;DHT22;11719;51.052;6.982;2023-03-23T00:46:54;15.80;99.90
16243;DHT22;11719;51.052;6.982;2023-03-23T00:49:22;15.80;99.90
16243;DHT22;11719;51.052;6.982;2023-03-23T00:51:54;15.70;99.90
16243;DHT22;11719;51.052;6.982;2023-03-23T00:54:22;15.70;99.90
16243;DHT22;11719;51.052;6.982;2023-03-23T00:56:49;15.70;99.90
16243;DHT22;11719;51.052;6.982;2023-03-23T00:59:16;15.70;99.90
16243;DHT22;11719;51.052;6.982;2023-03-23T01:01:42;15.70;99.90
16243;DHT22;11719;51.052;6.982;2023-03-23T01:04:08;15.60;99.90
16243;DHT22;11719;51.052;6.982;2023-03-23T01:06:39;15.60;99.90
16243;DHT22;11719;51.052;6.982;2023-03-23T01:09:07;15.70;99.90
16243;DHT22;11719;51.052;6.982;2023-03-23T01:11:41;15.70;99.90
16243;DHT22;11719;51.052;6.982;2023-03-23T01:14:07;15.80;99.90
16243;DHT22;11719;51.052;6.982;2023-03-23T01:16:33;15.80;99.90
16243;DHT22;11719;51.052;6.982;2023-03-23T01:18:59;15.80;99.90
16243;DHT22;11719;51.052;6.982;2023-03-23T01:21:25;15.80;99.90
16243;DHT22;11719;51.052;6.982;2023-03-23T01:23:51;15.70;99.90
16243;DHT22;11719;51.052;6.982;2023-03-23T01:26:20;15.70;99.90
16243;DHT22;11719;51.052;6.982;2023-03-23T01:28:47;15.80;99.90
16243;DHT22;11719;51.052;6.982;2023-03-23T01:31:15;15.80;99.90
16243;DHT22;11719;51.052;6.982;2023-03-23T01:33:43;15.80;99.90
16243;DHT22;11719;51.052;6.982;2023-03-23T01:36:17;15.80;99.90
16243;DHT22;11719;51.052;6.982;2023-03-23T01:38:47;15.80;99.90
16243;DHT22;11719;51.052;6.982;2023-03-23T01:41:15;15.80;99.90
16243;DHT22;11719;51.052;6.982;2023-03-23T01:44:59;15.70;99.90
16243;DHT22;11719;51.052;6.982;2023-03-23T01:46:55;15.70;99.90
16243;DHT22;11719;51.052;6.982;2023-03-23T01:49:47;15.60;99.90
16243;DHT22;11719;51.052;6.982;2023-03-23T01:52:22;15.60;99.90
16243;DHT22;11719;51.052;6.982;2023-03-23T01:54:52;15.60;99.90
16243;DHT22;11719;51.052;6.982;2023-03-23T01:57:22;15.70;99.90
16243;DHT22;11719;51.052;6.982;2023-03-23T01:59:53;15.70;99.90
16243;DHT22;11719;51.052;6.982;2023-03-23T02:02:22;15.60;99.90
16243;DHT22;11719;51.052;6.982;2023-03-23T02:04:49;15.60;99.90
16243;DHT22;11719;51.052;6.982;2023-03-23T02:07:19;15.60;99.90
16243;DHT22;11719;51.052;6.982;2023-03-23T02:09:45;15.50;99.90
16243;DHT22;11719;51.052;6.982;2023-03-23T02:12:11;15.50;99.90
16243;DHT22;11719;51.052;6.982;2023-03-23T02:14:37;15.50;99.90
16243;DHT22;11719;51.052;6.982;2023-03-23T02:17:25;15.40;99.90
16243;DHT22;11719;51.052;6.982;2023-03-23T02:23:46;15.60;99.90
16243;DHT22;11719;51.052;6.982;2023-03-23T02:26:53;15.50;99.90
16243;DHT22;11719;51.052;6.982;2023-03-23T02:35:10;15.50;99.90
16243;DHT22;11719;51.052;6.982;2023-03-23T02:38:00;15.50;99.90
16243;DHT22;11719;51.052;6.982;2023-03-23T02:40:40;15.50;99.90
16243;DHT22;11719;51.052;6.982;2023-03-23T02:43:11;15.50;99.90
16243;DHT22;11719;51.052;6.982;2023-03-23T02:45:42;15.60;99.90
16243;DHT22;11719;51.052;6.982;2023-03-23T02:48:10;15.60;99.90
16243;DHT22;11719;51.052;6.982;2023-03-23T02:50:40;15.60;99.90
16243;DHT22;11719;51.052;6.982;2023-03-23T02:53:10;15.60;99.90
16243;DHT22;11719;51.052;6.982;2023-03-23T02:55:39;15.70;99.90
16243;DHT22;11719;51.052;6.982;2023-03-23T02:58:09;15.80;99.90
16243;DHT22;11719;51.052;6.982;2023-03-23T03:00:38;15.70;99.90
16243;DHT22;11719;51.052;6.982;2023-03-23T03:03:05;15.70;99.90
16243;DHT22;11719;51.052;6.982;2023-03-23T03:05:44;15.70;99.90
16243;DHT22;11719;51.052;6.982;2023-03-23T03:08:45;15.70;99.90
16243;DHT22;11719;51.052;6.982;2023-03-23T03:11:19;15.60;99.90
16243;DHT22;11719;51.052;6.982;2023-03-23T03:16:27;15.50;99.90
16243;DHT22;11719;51.052;6.982;2023-03-23T03:19:52;15.50;99.90
16243;DHT22;11719;51.052;6.982;2023-03-23T03:22:04;15.40;99.90
16243;DHT22;11719;51.052;6.982;2023-03-23T03:24:31;15.40;99.90
16243;DHT22;11719;51.052;6.982;2023-03-23T03:27:00;15.40;99.90
16243;DHT22;11719;51.052;6.982;2023-03-23T03:29:31;15.40;99.90
16243;DHT22;11719;51.052;6.982;2023-03-23T03:32:00;15.50;99.90
16243;DHT22;11719;51.052;6.982;2023-03-23T03:34:29;15.50;99.90
16243;DHT22;11719;51.052;6.982;2023-03-23T03:36:58;15.40;99.90
16243;DHT22;11719;51.052;6.982;2023-03-23T03:39:25;15.40;99.90
16243;DHT22;11719;51.052;6.982;2023-03-23T03:41:52;15.40;99.90
16243;DHT22;11719;51.052;6.982;2023-03-23T03:44:18;15.40;99.90
16243;DHT22;11719;51.052;6.982;2023-03-23T03:46:44;15.40;99.90
16243;DHT22;11719;51.052;6.982;2023-03-23T03:49:10;15.30;99.90
16243;DHT22;11719;51.052;6.982;2023-03-23T03:51:40;15.30;99.90
16243;DHT22;11719;51.052;6.982;2023-03-23T03:54:07;15.30;99.90
16243;DHT22;11719;51.052;6.982;2023-03-23T03:56:33;15.30;99.90
16243;DHT22;11719;51.052;6.982;2023-03-23T03:59:02;15.40;99.90
16243;DHT22;11719;51.052;6.982;2023-03-23T04:01:28;15.40;99.90
16243;DHT22;11719;51.052;6.982;2023-03-23T04:03:54;15.40;99.90
16243;DHT22;11719;51.052;6.982;2023-03-23T04:06:22;15.40;99.90
16243;DHT22;11719;51.052;6.982;2023-03-23T04:08:48;15.40;99.90
16243;DHT22;11719;51.052;6.982;2023-03-23T04:11:14;15.50;99.90
16243;DHT22;11719;51.052;6.982;2023-03-23T04:13:41;15.40;99.90
16243;DHT22;11719;51.052;6.982;2023-03-23T04:16:07;15.50;99.90
16243;DHT22;11719;51.052;6.982;2023-03-23T04:18:34;15.60;99.90
16243;DHT22;11719;51.052;6.982;2023-03-23T04:21:01;15.60;99.90
16243;DHT22;11719;51.052;6.982;2023-03-23T04:23:30;15.60;99.90
16243;DHT22;11719;51.052;6.982;2023-03-23T04:25:59;15.60;99.90
16243;DHT22;11719;51.052;6.982;2023-03-23T04:28:25;15.70;99.90
16243;DHT22;11719;51.052;6.982;2023-03-23T04:30:53;15.70;99.90
16243;DHT22;11719;51.052;6.982;2023-03-23T04:33:21;15.70;99.90
16243;DHT22;11719;51.052;6.982;2023-03-23T04:35:48;15.70;99.90
16243;DHT22;11719;51.052;6.982;2023-03-23T04:38:17;15.70;99.90
16243;DHT22;11719;51.052;6.982;2023-03-23T04:40:49;15.70;99.90
16243;DHT22;11719;51.052;6.982;2023-03-23T04:43:21;15.80;99.90
16243;DHT22;11719;51.052;6.982;2023-03-23T04:45:58;15.90;99.90
16243;DHT22;11719;51.052;6.982;2023-03-23T04:48:27;15.90;99.90
16243;DHT22;11719;51.052;6.982;2023-03-23T04:50:55;15.90;99.90
16243;DHT22;11719;51.052;6.982;2023-03-23T04:53:25;15.90;99.90
16243;DHT22;11719;51.052;6.982;2023-03-23T04:55:51;15.90;99.90
16243;DHT22;11719;51.052;6.982;2023-03-23T04:58:17;15.90;99.90
16243;DHT22;11719;51.052;6.982;2023-03-23T05:00:43;15.80;99.90
16243;DHT22;11719;51.052;6.982;2023-03-23T05:03:15;15.80;99.90
16243;DHT22;11719;51.052;6.982;2023-03-23T05:05:42;15.70;99.90
16243;DHT22;11719;51.052;6.982;2023-03-23T05:08:15;15.70;99.90
16243;DHT22;11719;51.052;6.982;2023-03-23T05:10:41;15.60;99.90
16243;DHT22;11719;51.052;6.982;2023-03-23T05:13:07;15.60;99.90
16243;DHT22;11719;51.052;6.982;2023-03-23T05:15:33;15.70;99.90
16243;DHT22;11719;51.052;6.982;2023-03-23T05:17:58;15.70;99.90
16243;DHT22;11719;51.052;6.982;2023-03-23T05:20:24;15.70;99.90
16243;DHT22;11719;51.052;6.982;2023-03-23T05:22:50;15.70;99.90
16243;DHT22;11719;51.052;6.982;2023-03-23T05:25:18;15.70;99.90
16243;DHT22;11719;51.052;6.982;2023-03-23T05:27:48;15.80;99.90
16243;DHT22;11719;51.052;6.982;2023-03-23T05:30:19;15.80;99.90
16243;DHT22;11719;51.052;6.982;2023-03-23T05:32:47;15.80;99.90
16243;DHT22;11719;51.052;6.982;2023-03-23T05:35:17;15.70;99.90
16243;DHT22;11719;51.052;6.982;2023-03-23T05:37:44;15.70;99.90
16243;DHT22;11719;51.052;6.982;2023-03-23T05:40:10;15.70;99.90
16243;DHT22;11719;51.052;6.982;2023-03-23T05:42:38;15.70;99.90
16243;DHT22;11719;51.052;6.982;2023-03-23T05:45:07;15.80;99.90
16243;DHT22;11719;51.052;6.982;2023-03-23T05:47:35;15.80;99.90
16243;DHT22;11719;51.052;6.982;2023-03-23T05:50:01;15.80;99.90
16243;DHT22;11719;51.052;6.982;2023-03-23T05:52:27;15.80;99.90
16243;DHT22;11719;51.052;6.982;2023-03-23T05:54:53;15.80;99.90
16243;DHT22;11719;51.052;6.982;2023-03-23T05:57:19;15.70;99.90
16243;DHT22;11719;51.052;6.982;2023-03-23T05:59:47;15.70;99.90
16243;DHT22;11719;51.052;6.982;2023-03-23T06:02:14;15.70;99.90
16243;DHT22;11719;51.052;6.982;2023-03-23T06:04:40;15.70;99.90
16243;DHT22;11719;51.052;6.982;2023-03-23T06:07:07;15.70;99.90
16243;DHT22;11719;51.052;6.982;2023-03-23T06:09:38;15.70;99.90
16243;DHT22;11719;51.052;6.982;2023-03-23T06:12:04;15.70;99.90
16243;DHT22;11719;51.052;6.982;2023-03-23T06:14:30;15.60;99.90
16243;DHT22;11719;51.052;6.982;2023-03-23T06:16:56;15.60;99.90
16243;DHT22;11719;51.052;6.982;2023-03-23T06:19:22;15.60;99.90
16243;DHT22;11719;51.052;6.982;2023-03-23T06:21:48;15.50;99.90
16243;DHT22;11719;51.052;6.982;2023-03-23T06:24:14;15.50;99.90
16243;DHT22;11719;51.052;6.982;2023-03-23T06:26:40;15.40;99.90
16243;DHT22;11719;51.052;6.982;2023-03-23T06:29:09;15.50;99.90
16243;DHT22;11719;51.052;6.982;2023-03-23T06:31:40;15.50;99.90
16243;DHT22;11719;51.052;6.982;2023-03-23T06:34:09;15.40;99.90
16243;DHT22;11719;51.052;6.982;2023-03-23T06:36:35;15.50;99.90
16243;DHT22;11719;51.052;6.982;2023-03-23T06:39:02;15.40;99.90
16243;DHT22;11719;51.052;6.982;2023-03-23T06:41:32;15.50;99.90
16243;DHT22;11719;51.052;6.982;2023-03-23T06:43:59;15.50;99.90
16243;DHT22;11719;51.052;6.982;2023-03-23T06:46:26;15.60;99.90
16243;DHT22;11719;51.052;6.982;2023-03-23T06:48:53;15.60;99.90
16243;DHT22;11719;51.052;6.982;2023-03-23T06:51:19;15.60;99.90
16243;DHT22;11719;51.052;6.982;2023-03-23T06:53:46;15.60;99.90
16243;DHT22;11719;51.052;6.982;2023-03-23T06:56:12;15.60;99.90
16243;DHT22;11719;51.052;6.982;2023-03-23T06:58:39;15.60;99.90
16243;DHT22;11719;51.052;6.982;2023-03-23T07:01:05;15.70;99.90
16243;DHT22;11719;51.052;6.982;2023-03-23T07:03:32;15.70;99.90
16243;DHT22;11719;51.052;6.982;2023-03-23T07:05:58;15.70;99.90
16243;DHT22;11719;51.052;6.982;2023-03-23T07:08:25;15.70;99.90
16243;DHT22;11719;51.052;6.982;2023-03-23T07:10:53;15.70;99.90
16243;DHT22;11719;51.052;6.982;2023-03-23T07:13:20;15.70;99.90
16243;DHT22;11719;51.052;6.982;2023-03-23T07:15:46;15.70;99.90
16243;DHT22;11719;51.052;6.982;2023-03-23T07:18:14;15.80;99.90
16243;DHT22;11719;51.052;6.982;2023-03-23T07:20:39;15.80;99.90
16243;DHT22;11719;51.052;6.982;2023-03-23T07:23:06;15.90;99.90
16243;DHT22;11719;51.052;6.982;2023-03-23T07:25:32;15.90;99.90
16243;DHT22;11719;51.052;6.982;2023-03-23T07:28:00;15.90;99.90
16243;DHT22;11719;51.052;6.982;2023-03-23T07:30:27;15.90;99.90
16243;DHT22;11719;51.052;6.982;2023-03-23T07:32:54;15.90;99.90
16243;DHT22;11719;51.052;6.982;2023-03-23T07:35:24;16.00;99.90
16243;DHT22;11719;51.052;6.982;2023-03-23T07:37:51;16.00;99.90
16243;DHT22;11719;51.052;6.982;2023-03-23T07:40:19;16.00;99.90
16243;DHT22;11719;51.052;6.982;2023-03-23T07:42:51;16.10;99.90
16243;DHT22;11719;51.052;6.982;2023-03-23T07:45:20;16.10;99.90
16243;DHT22;11719;51.052;6.982;2023-03-23T07:47:46;16.00;99.90
16243;DHT22;11719;51.052;6.982;2023-03-23T07:50:13;15.90;99.90
16243;DHT22;11719;51.052;6.982;2023-03-23T07:52:39;15.90;99.90
16243;DHT22;11719;51.052;6.982;2023-03-23T07:55:09;15.80;99.90
16243;DHT22;11719;51.052;6.982;2023-03-23T07:57:46;15.80;99.90
16243;DHT22;11719;51.052;6.982;2023-03-23T08:00:15;15.80;99.90
16243;DHT22;11719;51.052;6.982;2023-03-23T08:02:46;15.80;99.90
16243;DHT22;11719;51.052;6.982;2023-03-23T08:05:14;15.80;99.90
16243;DHT22;11719;51.052;6.982;2023-03-23T08:07:41;15.90;99.90
16243;DHT22;11719;51.052;6.982;2023-03-23T08:10:09;15.80;99.90
16243;DHT22;11719;51.052;6.982;2023-03-23T08:12:36;15.80;99.90
16243;DHT22;11719;51.052;6.982;2023-03-23T08:15:07;15.80;99.90
16243;DHT22;11719;51.052;6.982;2023-03-23T08:17:37;15.80;99.90
16243;DHT22;11719;51.052;6.982;2023-03-23T08:20:04;15.90;99.90
16243;DHT22;11719;51.052;6.982;2023-03-23T08:22:38;15.80;99.90
16243;DHT22;11719;51.052;6.982;2023-03-23T08:25:07;15.90;99.90
16243;DHT22;11719;51.052;6.982;2023-03-23T08:27:35;16.00;99.90
16243;DHT22;11719;51.052;6.982;2023-03-23T08:30:00;16.00;99.90
16243;DHT22;11719;51.052;6.982;2023-03-23T08:32:27;16.00;99.90
16243;DHT22;11719;51.052;6.982;2023-03-23T08:34:53;16.10;99.90
16243;DHT22;11719;51.052;6.982;2023-03-23T08:37:19;16.00;99.90
16243;DHT22;11719;51.052;6.982;2023-03-23T08:39:45;16.00;99.90
16243;DHT22;11719;51.052;6.982;2023-03-23T08:42:11;16.00;99.90
16243;DHT22;11719;51.052;6.982;2023-03-23T08:44:37;16.00;99.90
16243;DHT22;11719;51.052;6.982;2023-03-23T08:47:04;16.00;99.90
16243;DHT22;11719;51.052;6.982;2023-03-23T08:49:31;16.10;99.90
16243;DHT22;11719;51.052;6.982;2023-03-23T08:52:00;16.10;99.90
16243;DHT22;11719;51.052;6.982;2023-03-23T08:54:27;16.10;99.90
16243;DHT22;11719;51.052;6.982;2023-03-23T08:56:58;16.10;99.90
16243;DHT22;11719;51.052;6.982;2023-03-23T08:59:25;16.10;99.90
16243;DHT22;11719;51.052;6.982;2023-03-23T09:01:51;16.10;99.90
16243;DHT22;11719;51.052;6.982;2023-03-23T09:04:18;16.10;99.90
16243;DHT22;11719;51.052;6.982;2023-03-23T09:06:43;16.20;99.90
16243;DHT22;11719;51.052;6.982;2023-03-23T09:09:11;16.20;99.90
16243;DHT22;11719;51.052;6.982;2023-03-23T09:11:38;16.20;99.90
16243;DHT22;11719;51.052;6.982;2023-03-23T09:14:05;16.30;99.90
16243;DHT22;11719;51.052;6.982;2023-03-23T09:16:32;16.20;99.90
16243;DHT22;11719;51.052;6.982;2023-03-23T09:18:59;16.20;99.90
16243;DHT22;11719;51.052;6.982;2023-03-23T09:21:27;16.20;99.90
16243;DHT22;11719;51.052;6.982;2023-03-23T09:23:53;16.10;99.90
16243;DHT22;11719;51.052;6.982;2023-03-23T09:26:26;16.20;99.90
16243;DHT22;11719;51.052;6.982;2023-03-23T09:28:53;16.30;99.90
16243;DHT22;11719;51.052;6.982;2023-03-23T09:31:19;16.30;99.90
16243;DHT22;11719;51.052;6.982;2023-03-23T09:33:48;16.30;99.90
16243;DHT22;11719;51.052;6.982;2023-03-23T09:36:18;16.30;99.90
16243;DHT22;11719;51.052;6.982;2023-03-23T09:38:47;16.30;99.90
16243;DHT22;11719;51.052;6.982;2023-03-23T09:47:04;16.30;99.90
16243;DHT22;11719;51.052;6.982;2023-03-23T09:49:45;16.30;99.90
16243;DHT22;11719;51.052;6.982;2023-03-23T09:55:14;16.30;99.90
16243;DHT22;11719;51.052;6.982;2023-03-23T09:58:01;16.20;99.90
16243;DHT22;11719;51.052;6.982;2023-03-23T10:00:37;16.20;99.90
16243;DHT22;11719;51.052;6.982;2023-03-23T10:03:27;16.20;99.90
16243;DHT22;11719;51.052;6.982;2023-03-23T10:05:57;16.30;99.90
16243;DHT22;11719;51.052;6.982;2023-03-23T10:08:25;16.20;99.90
16243;DHT22;11719;51.052;6.982;2023-03-23T10:11:14;16.30;99.90
16243;DHT22;11719;51.052;6.982;2023-03-23T10:22:42;16.30;99.90
16243;DHT22;11719;51.052;6.982;2023-03-23T10:27:59;16.30;99.90
16243;DHT22;11719;51.052;6.982;2023-03-23T10:30:46;16.30;99.90
16243;DHT22;11719;51.052;6.982;2023-03-23T10:33:30;16.30;99.90
16243;DHT22;11719;51.052;6.982;2023-03-23T10:36:23;16.30;99.90
16243;DHT22;11719;51.052;6.982;2023-03-23T10:39:10;16.20;99.90
16243;DHT22;11719;51.052;6.982;2023-03-23T10:41:37;16.20;99.90
16243;DHT22;11719;51.052;6.982;2023-03-23T10:44:10;16.10;99.90
16243;DHT22;11719;51.052;6.982;2023-03-23T10:46:46;16.10;99.90
16243;DHT22;11719;51.052;6.982;2023-03-23T10:49:17;16.00;99.90
16243;DHT22;11719;51.052;6.982;2023-03-23T10:51:56;16.00;99.90
16243;DHT22;11719;51.052;6.982;2023-03-23T10:54:27;16.00;99.90
16243;DHT22;11719;51.052;6.982;2023-03-23T10:56:57;15.90;99.90
16243;DHT22;11719;51.052;6.982;2023-03-23T10:59:28;16.00;99.90
16243;DHT22;11719;51.052;6.982;2023-03-23T11:01:59;16.00;99.90
16243;DHT22;11719;51.052;6.982;2023-03-23T11:04:28;16.00;99.90
16243;DHT22;11719;51.052;6.982;2023-03-23T11:06:59;15.90;99.90
16243;DHT22;11719;51.052;6.982;2023-03-23T11:09:40;16.00;99.90
16243;DHT22;11719;51.052;6.982;2023-03-23T11:12:19;16.00;99.90
16243;DHT22;11719;51.052;6.982;2023-03-23T11:14:46;16.00;99.90
16243;DHT22;11719;51.052;6.982;2023-03-23T11:17:24;16.00;99.90
16243;DHT22;11719;51.052;6.982;2023-03-23T11:19:52;16.00;99.90
16243;DHT22;11719;51.052;6.982;2023-03-23T11:22:32;16.00;99.90
16243;DHT22;11719;51.052;6.982;2023-03-23T11:25:04;16.00;99.90
16243;DHT22;11719;51.052;6.982;2023-03-23T11:27:31;16.00;99.90
16243;DHT22;11719;51.052;6.982;2023-03-23T11:30:25;16.00;99.90
16243;DHT22;11719;51.052;6.982;2023-03-23T11:32:54;16.10;99.90
16243;DHT22;11719;51.052;6.982;2023-03-23T11:35:25;16.20;99.90
16243;DHT22;11719;51.052;6.982;2023-03-23T11:37:54;16.20;99.90
16243;DHT22;11719;51.052;6.982;2023-03-23T11:40:27;16.30;99.90
16243;DHT22;11719;51.052;6.982;2023-03-23T11:43:09;16.40;99.90
16243;DHT22;11719;51.052;6.982;2023-03-23T11:45:45;16.40;99.90
16243;DHT22;11719;51.052;6.982;2023-03-23T11:51:41;16.40;99.90
16243;DHT22;11719;51.052;6.982;2023-03-23T11:54:33;16.40;99.90
16243;DHT22;11719;51.052;6.982;2023-03-23T11:57:10;16.30;99.90
16243;DHT22;11719;51.052;6.982;2023-03-23T11:59:41;16.20;99.90
16243;DHT22;11719;51.052;6.982;2023-03-23T12:05:15;15.90;99.90
16243;DHT22;11719;51.052;6.982;2023-03-23T12:10:57;15.90;99.90
16243;DHT22;11719;51.052;6.982;2023-03-23T12:23:11;15.80;99.90
16243;DHT22;11719;51.052;6.982;2023-03-23T12:26:30;15.70;99.90
16243;DHT22;11719;51.052;6.982;2023-03-23T12:28:57;15.70;99.90
16243;DHT22;11719;51.052;6.982;2023-03-23T12:31:44;15.70;99.90
16243;DHT22;11719;51.052;6.982;2023-03-23T12:40:25;15.80;99.90
16243;DHT22;11719;51.052;6.982;2023-03-23T12:43:10;15.50;99.90
16243;DHT22;11719;51.052;6.982;2023-03-23T12:46:18;15.80;99.90
16243;DHT22;11719;51.052;6.982;2023-03-23T13:00:28;16.40;99.90
16243;DHT22;11719;51.052;6.982;2023-03-23T13:05:53;16.30;99.90
16243;DHT22;11719;51.052;6.982;2023-03-23T13:08:39;16.30;99.90
16243;DHT22;11719;51.052;6.982;2023-03-23T13:11:33;16.20;99.90
16243;DHT22;11719;51.052;6.982;2023-03-23T13:14:16;16.30;99.90
16243;DHT22;11719;51.052;6.982;2023-03-23T13:26:06;16.30;99.90
16243;DHT22;11719;51.052;6.982;2023-03-23T13:29:14;16.30;99.90
16243;DHT22;11719;51.052;6.982;2023-03-23T13:31:46;16.30;99.90
16243;DHT22;11719;51.052;6.982;2023-03-23T13:34:18;16.20;99.90
16243;DHT22;11719;51.052;6.982;2023-03-23T13:37:10;16.20;99.90
16243;DHT22;11719;51.052;6.982;2023-03-23T13:42:29;16.00;99.90
16243;DHT22;11719;51.052;6.982;2023-03-23T13:45:20;15.90;99.90
16243;DHT22;11719;51.052;6.982;2023-03-23T13:47:47;16.00;99.90
16243;DHT22;11719;51.052;6.982;2023-03-23T13:55:38;16.00;99.90
16243;DHT22;11719;51.052;6.982;2023-03-23T14:03:03;16.10;99.90
16243;DHT22;11719;51.052;6.982;2023-03-23T14:06:21;16.10;99.90
16243;DHT22;11719;51.052;6.982;2023-03-23T14:10:57;16.20;99.90
16243;DHT22;11719;51.052;6.982;2023-03-23T14:13:39;16.30;99.90
16243;DHT22;11719;51.052;6.982;2023-03-23T14:16:20;16.30;99.90
16243;DHT22;11719;51.052;6.982;2023-03-23T14:18:59;16.40;99.90
16243;DHT22;11719;51.052;6.982;2023-03-23T14:21:40;16.40;99.90
16243;DHT22;11719;51.052;6.982;2023-03-23T14:24:15;16.40;99.90
16243;DHT22;11719;51.052;6.982;2023-03-23T14:26:42;16.50;99.90
16243;DHT22;11719;51.052;6.982;2023-03-23T14:29:11;16.60;99.90
16243;DHT22;11719;51.052;6.982;2023-03-23T14:31:38;16.70;99.90
16243;DHT22;11719;51.052;6.982;2023-03-23T14:34:16;16.70;99.90
16243;DHT22;11719;51.052;6.982;2023-03-23T14:36:45;16.80;99.90
16243;DHT22;11719;51.052;6.982;2023-03-23T14:39:28;16.80;99.90
16243;DHT22;11719;51.052;6.982;2023-03-23T14:42:10;16.80;99.90
16243;DHT22;11719;51.052;6.982;2023-03-23T14:44:41;16.80;99.90
16243;DHT22;11719;51.052;6.982;2023-03-23T14:47:34;16.90;99.90
16243;DHT22;11719;51.052;6.982;2023-03-23T14:50:06;16.90;99.90
16243;DHT22;11719;51.052;6.982;2023-03-23T14:52:47;16.80;99.90
16243;DHT22;11719;51.052;6.982;2023-03-23T14:55:18;16.90;99.90
16243;DHT22;11719;51.052;6.982;2023-03-23T14:57:47;16.90;99.90
16243;DHT22;11719;51.052;6.982;2023-03-23T15:00:25;16.90;99.90
16243;DHT22;11719;51.052;6.982;2023-03-23T15:02:57;16.90;99.90
16243;DHT22;11719;51.052;6.982;2023-03-23T15:05:30;16.90;99.90
16243;DHT22;11719;51.052;6.982;2023-03-23T15:08:03;16.90;99.90
16243;DHT22;11719;51.052;6.982;2023-03-23T15:10:32;16.90;99.90
16243;DHT22;11719;51.052;6.982;2023-03-23T15:12:58;16.90;99.90
16243;DHT22;11719;51.052;6.982;2023-03-23T15:15:32;16.90;99.90
16243;DHT22;11719;51.052;6.982;2023-03-23T15:18:01;17.00;99.90
16243;DHT22;11719;51.052;6.982;2023-03-23T15:20:47;16.90;99.90
16243;DHT22;11719;51.052;6.982;2023-03-23T15:23:25;16.90;99.90
16243;DHT22;11719;51.052;6.982;2023-03-23T15:25:55;16.90;99.90
16243;DHT22;11719;51.052;6.982;2023-03-23T15:28:31;16.90;99.90
16243;DHT22;11719;51.052;6.982;2023-03-23T15:31:03;16.90;99.90
16243;DHT22;11719;51.052;6.982;2023-03-23T15:33:37;17.00;99.90
16243;DHT22;11719;51.052;6.982;2023-03-23T15:36:17;17.00;99.90
16243;DHT22;11719;51.052;6.982;2023-03-23T15:38:45;17.10;99.90
16243;DHT22;11719;51.052;6.982;2023-03-23T15:41:30;17.10;99.90
16243;DHT22;11719;51.052;6.982;2023-03-23T15:44:10;17.10;99.90
16243;DHT22;11719;51.052;6.982;2023-03-23T15:46:52;17.10;99.90
16243;DHT22;11719;51.052;6.982;2023-03-23T15:49:22;17.00;99.90
16243;DHT22;11719;51.052;6.982;2023-03-23T15:51:48;17.00;99.90
16243;DHT22;11719;51.052;6.982;2023-03-23T15:54:15;17.00;99.90
16243;DHT22;11719;51.052;6.982;2023-03-23T15:56:42;16.90;99.90
16243;DHT22;11719;51.052;6.982;2023-03-23T15:59:09;16.80;99.90
16243;DHT22;11719;51.052;6.982;2023-03-23T16:01:38;16.80;99.90
16243;DHT22;11719;51.052;6.982;2023-03-23T16:04:13;16.70;99.90
16243;DHT22;11719;51.052;6.982;2023-03-23T16:06:41;16.80;99.90
16243;DHT22;11719;51.052;6.982;2023-03-23T16:09:13;16.80;99.90
16243;DHT22;11719;51.052;6.982;2023-03-23T16:11:41;16.80;99.90
16243;DHT22;11719;51.052;6.982;2023-03-23T16:14:07;16.80;99.90
16243;DHT22;11719;51.052;6.982;2023-03-23T16:19:05;16.80;99.90
16243;DHT22;11719;51.052;6.982;2023-03-23T16:21:31;16.80;99.90
16243;DHT22;11719;51.052;6.982;2023-03-23T16:27:26;16.90;99.90
16243;DHT22;11719;51.052;6.982;2023-03-23T16:29:52;16.80;99.90
16243;DHT22;11719;51.052;6.982;2023-03-23T16:32:18;16.80;99.90
16243;DHT22;11719;51.052;6.982;2023-03-23T16:34:43;16.70;99.90
16243;DHT22;11719;51.052;6.982;2023-03-23T16:37:10;16.80;99.90
16243;DHT22;11719;51.052;6.982;2023-03-23T16:39:39;16.80;99.90
16243;DHT22;11719;51.052;6.982;2023-03-23T16:42:05;16.80;99.90
16243;DHT22;11719;51.052;6.982;2023-03-23T16:44:31;16.80;99.90
16243;DHT22;11719;51.052;6.982;2023-03-23T16:46:56;16.80;99.90
16243;DHT22;11719;51.052;6.982;2023-03-23T16:49:22;16.80;99.90
16243;DHT22;11719;51.052;6.982;2023-03-23T16:51:48;16.70;99.90
16243;DHT22;11719;51.052;6.982;2023-03-23T16:54:14;16.80;99.90
16243;DHT22;11719;51.052;6.982;2023-03-23T16:56:39;16.80;99.90
16243;DHT22;11719;51.052;6.982;2023-03-23T16:59:10;16.80;99.90
16243;DHT22;11719;51.052;6.982;2023-03-23T17:01:36;16.80;99.90
16243;DHT22;11719;51.052;6.982;2023-03-23T17:04:01;16.80;99.90
16243;DHT22;11719;51.052;6.982;2023-03-23T17:06:28;16.70;99.90
16243;DHT22;11719;51.052;6.982;2023-03-23T17:08:54;16.80;99.90
16243;DHT22;11719;51.052;6.982;2023-03-23T17:11:20;16.80;99.90
16243;DHT22;11719;51.052;6.982;2023-03-23T17:13:47;16.80;99.90
16243;DHT22;11719;51.052;6.982;2023-03-23T17:16:13;16.80;99.90
16243;DHT22;11719;51.052;6.982;2023-03-23T17:18:38;16.80;99.90
16243;DHT22;11719;51.052;6.982;2023-03-23T17:21:04;16.80;99.90
16243;DHT22;11719;51.052;6.982;2023-03-23T17:23:31;16.80;99.90
16243;DHT22;11719;51.052;6.982;2023-03-23T17:25:57;16.70;99.90
16243;DHT22;11719;51.052;6.982;2023-03-23T17:28:23;16.70;99.90
16243;DHT22;11719;51.052;6.982;2023-03-23T17:30:51;16.70;99.90
16243;DHT22;11719;51.052;6.982;2023-03-23T17:33:17;16.70;99.90
16243;DHT22;11719;51.052;6.982;2023-03-23T17:35:45;16.70;99.90
16243;DHT22;11719;51.052;6.982;2023-03-23T17:38:13;16.60;99.90